Time,TemperatureF,DewpointF,PressureIn,WindDirection,WindDirectionDegrees,WindSpeedMPH,WindSpeedGustMPH,Humidity,HourlyPrecipIn,Conditions,Clouds,dailyrainin,SolarRadiationWatts/m^2,SoftwareType,DateUTC
2013-05-06 00:02:00,54.0,53.0,-100.00,NNE,14,3.0,9.0,97,0.00,,,0.58,0.000000,,2013-05-06 05:02:00,
2013-05-06 00:32:00,53.0,52.0,-100.00,NE,46,2.0,7.0,98,0.00,,,0.58,0.000000,,2013-05-06 05:32:00,
2013-05-06 00:42:00,53.0,52.0,-100.00,NE,46,2.0,7.0,98,0.00,,,0.58,0.000000,,2013-05-06 05:42:00,
2013-05-06 00:52:00,53.0,52.0,-100.00,NE,46,2.0,7.0,98,0.00,,,0.58,0.000000,,2013-05-06 05:52:00,
2013-05-06 01:02:00,53.0,52.0,-100.00,NE,46,2.0,7.0,98,0.00,,,0.58,0.000000,,2013-05-06 06:02:00,
2013-05-06 01:32:00,53.0,52.0,-100.00,NNE,19,2.0,6.0,97,0.00,,,0.58,0.000000,,2013-05-06 06:32:00,
2013-05-06 01:42:00,53.0,52.0,-100.00,NNE,19,2.0,6.0,97,0.00,,,0.58,0.000000,,2013-05-06 06:42:00,
2013-05-06 01:52:00,53.0,52.0,-100.00,NNE,19,2.0,6.0,97,0.00,,,0.58,0.000000,,2013-05-06 06:52:00,
2013-05-06 02:01:00,53.0,52.0,-100.00,NNE,19,2.0,6.0,97,0.00,,,0.58,0.000000,,2013-05-06 07:01:00,
2013-05-06 02:32:00,53.0,52.0,-100.00,North,8,3.0,6.0,97,0.00,,,0.58,0.000000,,2013-05-06 07:32:00,
2013-05-06 02:42:00,53.0,52.0,-100.00,North,8,3.0,6.0,97,0.00,,,0.58,0.000000,,2013-05-06 07:42:00,
2013-05-06 02:52:00,53.0,52.0,-100.00,North,8,3.0,6.0,97,0.00,,,0.58,0.000000,,2013-05-06 07:52:00,
2013-05-06 03:02:00,53.0,52.0,-100.00,North,8,3.0,6.0,97,0.00,,,0.58,0.000000,,2013-05-06 08:02:00,
2013-05-06 03:32:00,52.0,51.0,-100.00,NNE,26,2.0,8.0,95,0.00,,,0.58,0.000000,,2013-05-06 08:32:00,
2013-05-06 03:42:00,52.0,51.0,-100.00,NNE,26,2.0,8.0,95,0.00,,,0.58,0.000000,,2013-05-06 08:42:00,
2013-05-06 03:52:00,52.0,51.0,-100.00,NNE,26,2.0,8.0,95,0.00,,,0.58,0.000000,,2013-05-06 08:52:00,
2013-05-06 04:01:00,52.0,51.0,-100.00,NNE,26,2.0,8.0,95,0.00,,,0.58,0.000000,,2013-05-06 09:01:00,
2013-05-06 04:33:00,52.0,51.0,-100.00,North,1,2.0,7.0,96,0.00,,,0.58,0.000000,,2013-05-06 09:33:00,
2013-05-06 04:43:00,52.0,51.0,-100.00,North,1,2.0,7.0,96,0.00,,,0.58,0.000000,,2013-05-06 09:43:00,
2013-05-06 04:53:00,52.0,51.0,-100.00,North,1,2.0,7.0,96,0.00,,,0.58,0.000000,,2013-05-06 09:53:00,
2013-05-06 05:02:00,52.0,51.0,-100.00,North,1,2.0,7.0,96,0.00,,,0.58,0.000000,,2013-05-06 10:02:00,
2013-05-06 05:33:00,52.0,51.0,-100.00,North,1,4.0,10.0,96,0.00,,,0.58,0.000000,,2013-05-06 10:33:00,
2013-05-06 05:42:00,52.0,51.0,-100.00,North,1,4.0,10.0,96,0.00,,,0.58,0.000000,,2013-05-06 10:42:00,
2013-05-06 05:52:00,52.0,51.0,-100.00,North,1,4.0,10.0,96,0.00,,,0.58,0.000000,,2013-05-06 10:52:00,
2013-05-06 06:02:00,52.0,51.0,-100.00,North,1,4.0,10.0,96,0.00,,,0.58,0.000000,,2013-05-06 11:02:00,
2013-05-06 06:32:00,52.0,51.0,-100.00,North,357,4.0,9.0,98,0.00,,,0.53,0.000000,,2013-05-06 11:32:00,
2013-05-06 06:42:00,52.0,51.0,-100.00,North,357,4.0,9.0,98,0.00,,,0.53,0.000000,,2013-05-06 11:42:00,
2013-05-06 06:52:00,52.0,51.0,-100.00,North,357,4.0,9.0,98,0.00,,,0.53,0.000000,,2013-05-06 11:52:00,
2013-05-06 07:01:00,52.0,51.0,-100.00,North,357,4.0,9.0,98,0.00,,,0.53,0.000000,,2013-05-06 12:01:00,
2013-05-06 07:32:00,52.0,52.0,-100.00,North,5,6.0,11.0,99,0.01,,,-99.99,6.000000,,2013-05-06 12:32:00,
2013-05-06 07:42:00,52.0,52.0,-100.00,North,5,6.0,11.0,99,0.01,,,-99.99,6.000000,,2013-05-06 12:42:00,
2013-05-06 07:52:00,52.0,52.0,-100.00,North,5,6.0,11.0,99,0.01,,,-99.99,6.000000,,2013-05-06 12:52:00,
2013-05-06 08:01:00,52.0,52.0,-100.00,North,5,6.0,11.0,99,0.01,,,-99.99,6.000000,,2013-05-06 13:01:00,
2013-05-06 09:32:00,56.0,55.0,-100.00,NNE,16,6.0,15.0,95,-99.99,,,0.52,138.000000,,2013-05-06 14:32:00,
2013-05-06 09:42:00,56.0,55.0,-100.00,NNE,16,6.0,15.0,95,-99.99,,,0.52,138.000000,,2013-05-06 14:42:00,
2013-05-06 09:52:00,56.0,55.0,-100.00,NNE,16,6.0,15.0,95,-99.99,,,0.52,138.000000,,2013-05-06 14:52:00,
2013-05-06 10:01:00,56.0,55.0,-100.00,NNE,16,6.0,15.0,95,-99.99,,,0.52,138.000000,,2013-05-06 15:01:00,
2013-05-06 10:33:00,57.0,55.0,-100.00,North,7,5.0,12.0,94,0.00,,,0.42,127.000000,,2013-05-06 15:33:00,
2013-05-06 10:43:00,57.0,55.0,-100.00,North,7,5.0,12.0,94,0.00,,,0.42,127.000000,,2013-05-06 15:43:00,
2013-05-06 10:53:00,57.0,55.0,-100.00,North,7,5.0,12.0,94,0.00,,,0.42,127.000000,,2013-05-06 15:53:00,
2013-05-06 11:03:00,57.0,55.0,-100.00,North,7,5.0,12.0,94,0.00,,,0.42,127.000000,,2013-05-06 16:03:00,
2013-05-06 11:33:00,58.0,55.0,-100.00,North,11,7.0,17.0,90,0.00,,,0.38,222.000000,,2013-05-06 16:33:00,
2013-05-06 11:42:00,58.0,55.0,-100.00,North,11,7.0,17.0,90,0.00,,,0.38,222.000000,,2013-05-06 16:42:00,
2013-05-06 11:52:00,58.0,55.0,-100.00,North,11,7.0,17.0,90,0.00,,,0.38,222.000000,,2013-05-06 16:52:00,
2013-05-06 12:03:00,58.0,55.0,-100.00,North,11,7.0,17.0,90,0.00,,,0.38,222.000000,,2013-05-06 17:03:00,
2013-05-06 14:32:00,61.0,56.0,-100.00,North,9,5.0,11.0,83,-99.99,,,-99.99,205.000000,,2013-05-06 19:32:00,
2013-05-06 14:42:00,61.0,56.0,-100.00,North,9,5.0,11.0,83,-99.99,,,-99.99,205.000000,,2013-05-06 19:42:00,
2013-05-06 14:52:00,61.0,56.0,-100.00,North,9,5.0,11.0,83,-99.99,,,-99.99,205.000000,,2013-05-06 19:52:00,
2013-05-06 15:02:00,61.0,56.0,-100.00,North,9,5.0,11.0,83,-99.99,,,-99.99,205.000000,,2013-05-06 20:02:00,
2013-05-06 15:32:00,63.0,56.0,-100.00,North,3,6.0,14.0,77,0.00,,,0.31,334.000000,,2013-05-06 20:32:00,
2013-05-06 15:42:00,63.0,56.0,-100.00,North,3,6.0,14.0,77,0.00,,,0.31,334.000000,,2013-05-06 20:42:00,
2013-05-06 15:52:00,63.0,56.0,-100.00,North,3,6.0,14.0,77,0.00,,,0.31,334.000000,,2013-05-06 20:52:00,
2013-05-06 16:01:00,63.0,56.0,-100.00,North,3,6.0,14.0,77,0.00,,,0.31,334.000000,,2013-05-06 21:01:00,
2013-05-06 16:33:00,62.0,56.0,-100.00,North,354,3.0,8.0,80,0.00,,,-99.99,128.000000,,2013-05-06 21:33:00,
2013-05-06 16:43:00,62.0,56.0,-100.00,North,354,3.0,8.0,80,0.00,,,-99.99,128.000000,,2013-05-06 21:43:00,
2013-05-06 16:53:00,62.0,56.0,-100.00,North,354,3.0,8.0,80,0.00,,,-99.99,128.000000,,2013-05-06 21:53:00,
2013-05-06 17:03:00,62.0,56.0,-100.00,North,354,3.0,8.0,80,0.00,,,-99.99,128.000000,,2013-05-06 22:03:00,
2013-05-06 17:33:00,61.0,56.0,-100.00,North,358,9.0,17.0,83,0.00,,,0.13,136.000000,,2013-05-06 22:33:00,
2013-05-06 17:45:00,61.0,56.0,-100.00,North,358,9.0,17.0,83,0.00,,,0.13,136.000000,,2013-05-06 22:45:00,
2013-05-06 17:52:00,61.0,56.0,-100.00,North,358,9.0,17.0,83,0.00,,,0.13,136.000000,,2013-05-06 22:52:00,
2013-05-06 18:03:00,61.0,56.0,-100.00,North,358,9.0,17.0,83,0.00,,,0.13,136.000000,,2013-05-06 23:03:00,
2013-05-06 18:32:00,59.0,58.0,-100.00,North,349,3.0,11.0,97,0.05,,,0.12,41.000000,,2013-05-06 23:32:00,
2013-05-06 18:42:00,59.0,58.0,-100.00,North,349,3.0,11.0,97,0.05,,,0.12,41.000000,,2013-05-06 23:42:00,
2013-05-06 18:52:00,59.0,58.0,-100.00,North,349,3.0,11.0,97,0.05,,,0.12,41.000000,,2013-05-06 23:52:00,
2013-05-06 19:01:00,59.0,58.0,-100.00,North,349,3.0,11.0,97,0.05,,,0.12,41.000000,,2013-05-07 00:01:00,
2013-05-06 20:32:00,57.0,56.0,-100.00,NW,320,3.0,5.0,98,-99.99,,,0.27,4.000000,,2013-05-07 01:32:00,
2013-05-06 20:42:00,57.0,56.0,-100.00,NW,320,3.0,5.0,98,-99.99,,,0.27,4.000000,,2013-05-07 01:42:00,
2013-05-06 20:53:00,57.0,56.0,-100.00,NW,320,3.0,5.0,98,-99.99,,,0.27,4.000000,,2013-05-07 01:53:00,
2013-05-06 21:02:00,57.0,56.0,-100.00,NW,320,3.0,5.0,98,-99.99,,,0.27,4.000000,,2013-05-07 02:02:00,
2013-05-06 21:32:00,57.0,57.0,-100.00,NNW,328,4.0,5.0,99,0.02,,,0.29,0.000000,,2013-05-07 02:32:00,
2013-05-06 21:42:00,57.0,57.0,-100.00,NNW,328,4.0,5.0,99,0.02,,,0.29,0.000000,,2013-05-07 02:42:00,
2013-05-06 21:52:00,57.0,57.0,-100.00,NNW,328,4.0,5.0,99,0.02,,,0.29,0.000000,,2013-05-07 02:52:00,
2013-05-06 22:01:00,57.0,57.0,-100.00,NNW,328,4.0,5.0,99,0.02,,,0.29,0.000000,,2013-05-07 03:01:00,
2013-05-06 22:32:00,58.0,57.0,-100.00,North,349,3.0,9.0,98,0.01,,,0.26,0.000000,,2013-05-07 03:32:00,
2013-05-06 22:43:00,58.0,57.0,-100.00,North,349,3.0,9.0,98,0.01,,,0.26,0.000000,,2013-05-07 03:43:00,
2013-05-06 22:53:00,58.0,57.0,-100.00,North,349,3.0,9.0,98,0.01,,,0.26,0.000000,,2013-05-07 03:53:00,
2013-05-06 23:03:00,58.0,57.0,-100.00,North,349,3.0,9.0,98,0.01,,,0.26,0.000000,,2013-05-07 04:03:00,
2013-05-06 23:33:00,57.0,56.0,-100.00,North,5,3.0,7.0,98,0.00,,,0.26,0.000000,,2013-05-07 04:33:00,
2013-05-06 23:42:00,57.0,56.0,-100.00,North,5,3.0,7.0,98,0.00,,,0.26,0.000000,,2013-05-07 04:42:00,
2013-05-06 23:53:00,57.0,56.0,-100.00,North,5,3.0,7.0,98,0.00,,,0.26,0.000000,,2013-05-07 04:53:00,